Time;durP1;ratioP1;P1;durP2;ratioP2;P2;SDS_P1;SDS_P2;PMS_P1;PMS_P2;Temp;Humidity;BMP_temperature;BMP_pressure;BME280_temperature;BME280_humidity;BME280_pressure;Samples;Min_cycle;Max_cycle;Signal;HPM_P1;HPM_P2
2023/01/01 00:01:15;;;;;;;25.47;22.10;;;9.70;99.90;;;;;;5054813;28;20305;-53
2023/01/01 00:03:41;;;;;;;29.03;22.87;;;9.70;99.90;;;;;;5054622;28;20179;-54
2023/01/01 00:06:08;;;;;;;25.37;22.20;;;9.60;99.90;;;;;;5054800;28;20232;-50
2023/01/01 00:08:34;;;;;;;24.00;21.47;;;9.70;99.90;;;;;;5054712;28;20234;-54
2023/01/01 00:11:05;;;;;;;25.63;22.67;;;9.70;99.90;;;;;;5054573;28;20211;-53
2023/01/01 00:13:31;;;;;;;30.77;24.83;;;9.70;99.90;;;;;;5054882;28;20646;-51
2023/01/01 00:16:04;;;;;;;21.50;19.27;;;9.70;99.90;;;;;;5054493;28;20175;-53
2023/01/01 00:18:29;;;;;;;23.23;19.97;;;9.70;99.90;;;;;;5054758;28;20202;-54
2023/01/01 00:21:12;;;;;;;24.73;20.87;;;9.70;99.90;;;;;;5054479;28;20226;-53
2023/01/01 00:23:38;;;;;;;22.70;18.87;;;9.70;99.90;;;;;;5054322;28;20632;-50
2023/01/01 00:26:12;;;;;;;25.67;21.70;;;9.70;99.90;;;;;;5054400;28;20179;-51
2023/01/01 00:28:37;;;;;;;26.77;23.87;;;9.60;99.90;;;;;;5054552;28;20214;-54
2023/01/01 00:31:16;;;;;;;24.63;21.57;;;9.60;99.90;;;;;;5054266;28;20187;-52
2023/01/01 00:33:42;;;;;;;22.97;20.13;;;9.50;99.90;;;;;;5054180;28;20171;-53
2023/01/01 00:36:09;;;;;;;25.67;21.43;;;9.50;99.90;;;;;;5054319;28;20177;-51
2023/01/01 00:38:35;;;;;;;22.77;20.30;;;9.60;99.90;;;;;;5054432;28;20193;-54
2023/01/01 00:41:02;;;;;;;23.00;20.60;;;9.60;99.90;;;;;;5054319;28;20199;-50
2023/01/01 00:43:27;;;;;;;22.40;19.40;;;9.70;99.90;;;;;;5053993;28;20258;-52
2023/01/01 00:45:53;;;;;;;28.10;24.50;;;9.70;99.90;;;;;;5053686;28;20203;-52
2023/01/01 00:48:20;;;;;;;34.47;27.20;;;9.70;99.90;;;;;;5053793;28;20294;-55
2023/01/01 00:50:46;;;;;;;38.00;30.53;;;9.70;99.90;;;;;;5053792;28;20194;-50
2023/01/01 00:53:12;;;;;;;33.37;29.80;;;9.70;99.90;;;;;;5052549;28;20183;-52
2023/01/01 00:55:41;;;;;;;33.70;29.97;;;9.60;99.90;;;;;;5053112;28;20640;-51
2023/01/01 00:58:07;;;;;;;34.13;29.07;;;9.60;99.90;;;;;;5053614;28;20233;-54
2023/01/01 01:00:33;;;;;;;35.83;31.93;;;9.60;99.90;;;;;;5053768;28;20230;-51
2023/01/01 01:02:59;;;;;;;33.07;29.53;;;9.70;99.90;;;;;;5053785;28;20208;-52
2023/01/01 01:05:25;;;;;;;33.30;29.50;;;9.70;99.90;;;;;;5053462;28;20183;-50
2023/01/01 01:07:50;;;;;;;43.20;35.83;;;9.70;99.90;;;;;;5053715;28;20290;-50
2023/01/01 01:10:16;;;;;;;44.27;39.10;;;9.70;99.90;;;;;;5053276;28;20203;-54
2023/01/01 01:12:41;;;;;;;43.33;38.60;;;9.60;99.90;;;;;;5053570;28;20211;-50
2023/01/01 01:15:08;;;;;;;41.83;36.83;;;9.60;99.90;;;;;;5053360;28;20174;-50
2023/01/01 01:17:34;;;;;;;52.70;44.23;;;9.60;99.90;;;;;;5053522;28;20210;-50
2023/01/01 01:20:00;;;;;;;43.90;39.07;;;9.60;99.90;;;;;;5053320;28;20284;-52
2023/01/01 01:22:26;;;;;;;49.77;43.43;;;9.60;99.90;;;;;;5053851;28;20250;-50
2023/01/01 01:24:51;;;;;;;50.70;42.50;;;9.50;99.90;;;;;;5052827;28;20175;-54
2023/01/01 01:27:17;;;;;;;55.43;47.47;;;9.50;99.90;;;;;;5053313;28;20544;-54
2023/01/01 01:29:42;;;;;;;45.27;38.23;;;9.50;99.90;;;;;;5053072;28;20175;-53
2023/01/01 01:32:10;;;;;;;45.17;39.93;;;9.50;99.90;;;;;;5053393;28;20168;-51
2023/01/01 01:34:36;;;;;;;41.27;36.80;;;9.50;99.90;;;;;;5052821;28;20171;-52
2023/01/01 01:37:01;;;;;;;43.40;37.43;;;9.60;99.90;;;;;;5053244;28;20659;-50
2023/01/01 01:39:27;;;;;;;40.20;35.30;;;9.50;99.90;;;;;;5053055;28;20592;-51
2023/01/01 01:41:52;;;;;;;40.17;35.50;;;9.50;99.90;;;;;;5053032;28;20191;-53
2023/01/01 01:44:46;;;;;;;40.87;36.40;;;9.50;99.90;;;;;;5052766;28;20517;-54
2023/01/01 01:47:37;;;;;;;40.90;35.37;;;9.40;99.90;;;;;;5052888;28;20167;-51
2023/01/01 01:50:08;;;;;;;41.00;35.67;;;9.40;99.90;;;;;;5052680;28;20187;-53
2023/01/01 01:52:36;;;;;;;38.47;32.93;;;9.40;99.90;;;;;;5052859;28;20316;-50
2023/01/01 01:55:05;;;;;;;41.63;36.30;;;9.40;99.90;;;;;;5052524;28;20536;-53
2023/01/01 01:57:32;;;;;;;36.63;32.63;;;9.30;99.90;;;;;;5052464;28;20183;-53
2023/01/01 01:59:58;;;;;;;34.13;29.40;;;9.30;99.90;;;;;;5052148;28;20199;-54
2023/01/01 02:02:47;;;;;;;31.90;27.90;;;9.20;99.90;;;;;;5052627;28;20172;-53
2023/01/01 02:05:12;;;;;;;38.07;32.27;;;9.30;99.90;;;;;;5052433;28;20529;-50
2023/01/01 02:07:39;;;;;;;34.03;30.37;;;9.20;99.90;;;;;;5052343;28;20199;-53
2023/01/01 02:10:05;;;;;;;37.53;32.17;;;9.30;99.90;;;;;;5052158;28;20205;-52
2023/01/01 02:12:30;;;;;;;35.20;31.40;;;9.20;99.90;;;;;;5052420;28;20229;-51
2023/01/01 02:14:56;;;;;;;39.20;34.37;;;9.20;99.90;;;;;;5052050;28;20163;-54
2023/01/01 02:17:27;;;;;;;41.17;36.83;;;9.20;99.90;;;;;;5052345;28;20185;-52
2023/01/01 02:20:27;;;;;;;39.23;34.40;;;9.20;99.90;;;;;;5052470;28;20583;-51
2023/01/01 02:23:24;;;;;;;38.03;33.13;;;9.20;99.90;;;;;;4990768;28;20674;-51
2023/01/01 02:26:04;;;;;;;43.83;38.47;;;9.20;99.90;;;;;;4990332;28;20181;-51
2023/01/01 02:28:36;;;;;;;36.97;33.00;;;9.20;99.90;;;;;;4990362;28;20212;-52
2023/01/01 02:31:04;;;;;;;31.27;27.87;;;9.20;99.90;;;;;;4990498;28;20602;-50
2023/01/01 02:33:30;;;;;;;33.60;29.93;;;9.10;99.90;;;;;;4990207;28;20345;-54
2023/01/01 02:36:02;;;;;;;32.07;28.67;;;9.10;99.90;;;;;;4990235;28;20169;-54
2023/01/01 02:38:38;;;;;;;30.67;25.97;;;9.10;99.90;;;;;;4990349;28;20173;-50
2023/01/01 02:41:27;;;;;;;34.33;30.07;;;9.10;99.90;;;;;;4990445;28;20236;-50
2023/01/01 02:43:53;;;;;;;32.70;28.93;;;9.10;99.90;;;;;;4989991;28;20174;-50
2023/01/01 02:46:18;;;;;;;29.70;25.17;;;9.10;99.90;;;;;;4990413;28;20711;-50
2023/01/01 02:48:47;;;;;;;29.07;26.03;;;9.10;99.90;;;;;;4990324;28;20205;-50
2023/01/01 02:51:24;;;;;;;31.93;26.93;;;9.20;99.90;;;;;;4990363;28;20236;-54
2023/01/01 02:53:52;;;;;;;27.67;24.67;;;9.20;99.90;;;;;;4989997;28;20247;-53
2023/01/01 02:56:39;;;;;;;27.37;24.47;;;9.10;99.90;;;;;;4990370;28;20196;-50
2023/01/01 03:02:32;;;;;;;25.30;22.60;;;9.10;99.90;;;;;;5052244;28;20206;-52
2023/01/01 03:05:09;;;;;;;27.23;24.30;;;9.20;99.90;;;;;;5051394;28;20206;-50
2023/01/01 03:07:47;;;;;;;29.43;26.23;;;9.20;99.90;;;;;;5051746;28;20571;-50
2023/01/01 03:10:51;;;;;;;29.07;25.93;;;9.10;99.90;;;;;;5055083;28;20248;-50
2023/01/01 03:13:41;;;;;;;30.70;26.53;;;9.10;99.90;;;;;;4996379;28;20631;-50
2023/01/01 03:16:14;;;;;;;28.50;24.53;;;9.00;99.90;;;;;;4996405;28;20574;-53
2023/01/01 03:19:44;;;;;;;29.93;24.83;;;8.90;99.90;;;;;;4996607;28;20176;-51
2023/01/01 03:22:13;;;;;;;27.07;24.13;;;8.90;99.90;;;;;;4844828;29;20205;-50
2023/01/01 03:24:53;;;;;;;27.27;24.47;;;8.90;99.90;;;;;;4844381;29;20186;-52
2023/01/01 03:27:24;;;;;;;27.00;24.10;;;8.90;99.90;;;;;;4844876;29;20185;-50
2023/01/01 03:29:53;;;;;;;26.93;24.13;;;8.90;99.90;;;;;;4844744;29;20328;-50
2023/01/01 03:35:24;;;;;;;26.40;23.60;;;8.80;99.90;;;;;;4844420;29;20185;-53
2023/01/01 03:37:54;;;;;;;26.73;23.93;;;8.80;99.90;;;;;;4844816;29;20202;-53
2023/01/01 03:40:21;;;;;;;27.33;24.43;;;8.80;99.90;;;;;;4844730;29;20229;-54
2023/01/01 03:42:54;;;;;;;28.33;25.33;;;10.70;99.90;;;;;;4844599;29;20190;-52
2023/01/01 03:45:24;;;;;;;30.40;27.20;;;8.80;99.90;;;;;;4844465;29;20284;-50
2023/01/01 03:47:50;;;;;;;28.03;24.97;;;8.80;99.90;;;;;;4847056;29;20623;-51
2023/01/01 03:50:16;;;;;;;27.20;24.33;;;8.70;99.90;;;;;;4881733;29;20287;-50
2023/01/01 03:53:01;;;;;;;29.40;26.33;;;8.70;99.90;;;;;;4881591;29;20181;-50
2023/01/01 03:55:40;;;;;;;31.27;28.00;;;8.60;99.90;;;;;;4901559;28;20182;-52
2023/01/01 03:58:12;;;;;;;36.50;32.47;;;8.60;99.90;;;;;;5021005;28;20183;-52
2023/01/01 04:00:45;;;;;;;42.53;35.40;;;8.60;99.90;;;;;;5057944;28;20195;-54
2023/01/01 04:03:19;;;;;;;36.93;32.57;;;8.60;99.90;;;;;;5057793;28;20163;-51
2023/01/01 04:05:45;;;;;;;32.67;28.60;;;8.60;99.90;;;;;;5057624;28;20167;-50
2023/01/01 04:08:11;;;;;;;28.87;25.73;;;8.60;99.90;;;;;;5057677;28;20683;-52
2023/01/01 04:10:41;;;;;;;38.77;32.07;;;8.50;99.90;;;;;;5057423;28;20213;-50
2023/01/01 04:13:07;;;;;;;33.37;29.30;;;8.50;99.90;;;;;;5119117;22;20217;-63
2023/01/01 04:15:34;;;;;;;52.13;43.53;;;8.50;99.90;;;;;;5076409;28;20666;-63
2023/01/01 04:18:00;;;;;;;45.13;37.77;;;8.50;99.90;;;;;;5077705;28;20177;-61
2023/01/01 04:20:26;;;;;;;43.90;36.17;;;8.60;99.90;;;;;;5059756;28;20543;-61
2023/01/01 04:22:55;;;;;;;40.47;35.20;;;8.60;99.90;;;;;;5073476;28;20277;-61
2023/01/01 04:25:21;;;;;;;36.50;31.30;;;8.60;99.90;;;;;;5074048;28;20170;-64
2023/01/01 04:27:46;;;;;;;34.33;28.97;;;8.60;99.90;;;;;;5074090;28;20259;-62
2023/01/01 04:30:13;;;;;;;28.57;25.53;;;8.70;99.90;;;;;;5073479;28;20179;-60
2023/01/01 04:32:39;;;;;;;29.17;24.70;;;8.60;99.90;;;;;;5074418;28;20378;-60
2023/01/01 04:35:07;;;;;;;32.07;27.40;;;8.60;99.90;;;;;;5073879;28;20178;-62
2023/01/01 04:37:35;;;;;;;26.23;23.43;;;8.60;99.90;;;;;;5074301;28;20170;-62
2023/01/01 04:40:01;;;;;;;28.20;24.23;;;8.60;99.90;;;;;;5073078;28;20517;-61
2023/01/01 04:42:26;;;;;;;26.90;23.73;;;8.50;99.90;;;;;;5073809;28;20197;-63
2023/01/01 04:44:52;;;;;;;24.30;21.10;;;8.50;99.90;;;;;;5073754;28;20194;-61
2023/01/01 04:47:17;;;;;;;24.47;20.77;;;8.50;99.90;;;;;;5074115;28;20250;-62
2023/01/01 04:49:43;;;;;;;25.33;22.63;;;8.50;99.90;;;;;;5073374;28;20254;-61
2023/01/01 04:52:08;;;;;;;23.53;21.03;;;8.50;99.90;;;;;;5073983;28;20186;-60
2023/01/01 04:54:34;;;;;;;21.10;18.37;;;8.50;99.90;;;;;;5073512;28;20197;-62
2023/01/01 04:56:59;;;;;;;20.33;18.07;;;8.50;99.90;;;;;;5073823;28;20543;-62
2023/01/01 04:59:25;;;;;;;21.57;19.23;;;8.50;99.90;;;;;;5073912;28;20258;-62
2023/01/01 05:01:51;;;;;;;22.73;20.33;;;8.50;99.90;;;;;;5073572;28;20198;-60
2023/01/01 05:04:16;;;;;;;20.00;17.90;;;8.60;99.90;;;;;;5073522;28;20178;-61
2023/01/01 05:06:42;;;;;;;21.03;18.67;;;8.50;99.90;;;;;;5073564;28;20166;-61
2023/01/01 05:09:09;;;;;;;20.67;17.53;;;8.50;99.90;;;;;;5073383;28;20287;-62
2023/01/01 05:11:35;;;;;;;20.53;18.33;;;8.50;99.90;;;;;;5073769;28;20256;-63
2023/01/01 05:14:01;;;;;;;21.13;17.60;;;8.50;99.90;;;;;;5073362;28;20287;-62
2023/01/01 05:16:32;;;;;;;18.70;16.70;;;8.50;99.90;;;;;;5073455;28;20177;-61
2023/01/01 05:18:58;;;;;;;18.47;16.23;;;8.50;99.90;;;;;;5073435;28;20173;-61
2023/01/01 05:21:26;;;;;;;20.40;18.30;;;8.50;99.90;;;;;;5072580;28;20186;-59
2023/01/01 05:23:58;;;;;;;17.87;16.07;;;8.50;99.90;;;;;;5072658;28;20171;-61
2023/01/01 05:26:29;;;;;;;18.03;16.03;;;8.50;99.90;;;;;;5073325;28;20197;-62
2023/01/01 05:28:55;;;;;;;16.73;15.03;;;8.50;99.90;;;;;;5073272;28;20744;-59
2023/01/01 05:31:24;;;;;;;15.20;13.60;;;8.40;99.90;;;;;;5073162;28;20194;-63
2023/01/01 05:33:51;;;;;;;32.53;18.83;;;8.40;99.90;;;;;;5071647;28;20606;-63
2023/01/01 05:36:20;;;;;;;31.37;25.00;;;8.30;99.90;;;;;;5073236;28;20163;-60
2023/01/01 05:38:45;;;;;;;24.53;22.13;;;8.20;99.90;;;;;;5073018;28;20566;-61
2023/01/01 05:41:13;;;;;;;31.10;22.60;;;8.10;99.90;;;;;;5073169;28;20175;-61
2023/01/01 05:43:38;;;;;;;23.90;21.53;;;8.00;99.90;;;;;;5072570;28;20257;-62
2023/01/01 05:46:12;;;;;;;21.60;19.50;;;7.90;99.90;;;;;;5073284;28;20253;-60
2023/01/01 05:48:37;;;;;;;23.63;21.40;;;7.90;99.90;;;;;;5072755;28;20203;-60
2023/01/01 05:51:05;;;;;;;22.77;20.57;;;7.80;99.90;;;;;;5072799;28;20559;-61
2023/01/01 05:53:32;;;;;;;23.93;21.63;;;7.80;99.90;;;;;;5072461;28;20253;-63
2023/01/01 05:55:58;;;;;;;21.50;19.23;;;7.80;99.90;;;;;;5054672;28;20182;-60
2023/01/01 05:58:24;;;;;;;24.70;21.90;;;7.70;99.90;;;;;;5072597;28;20170;-59
2023/01/01 06:00:50;;;;;;;20.40;18.30;;;7.70;99.90;;;;;;5072709;28;20186;-62
2023/01/01 06:03:16;;;;;;;26.13;22.07;;;7.70;99.90;;;;;;5072552;28;20638;-59
2023/01/01 06:05:41;;;;;;;24.50;22.00;;;7.60;99.90;;;;;;5054307;28;20219;-63
2023/01/01 06:08:07;;;;;;;20.47;18.37;;;7.50;99.90;;;;;;5072446;28;20243;-60
2023/01/01 06:10:32;;;;;;;21.03;18.70;;;7.50;99.90;;;;;;5072391;28;20655;-62
2023/01/01 06:12:58;;;;;;;22.87;20.60;;;7.40;99.90;;;;;;5054474;28;20213;-60
2023/01/01 06:15:25;;;;;;;22.57;20.33;;;7.30;99.90;;;;;;5071949;28;20170;-60
2023/01/01 06:17:50;;;;;;;24.53;21.80;;;7.30;99.90;;;;;;5072419;28;20261;-63
2023/01/01 06:20:16;;;;;;;24.40;21.90;;;7.30;99.90;;;;;;5072175;28;20678;-61
2023/01/01 06:22:42;;;;;;;27.13;23.83;;;7.40;99.90;;;;;;5072131;28;20733;-61
2023/01/01 06:25:08;;;;;;;29.20;25.73;;;7.40;99.90;;;;;;5071820;28;20170;-60
2023/01/01 06:27:34;;;;;;;29.53;25.90;;;7.40;99.90;;;;;;5072405;28;20186;-62
2023/01/01 06:30:00;;;;;;;31.60;27.50;;;7.50;99.90;;;;;;5072126;28;20647;-58
2023/01/01 06:32:26;;;;;;;31.73;27.23;;;7.50;99.90;;;;;;5072189;28;20193;-61
2023/01/01 06:34:51;;;;;;;29.93;25.27;;;7.60;99.90;;;;;;5070625;28;20171;-63
2023/01/01 06:37:17;;;;;;;25.83;22.67;;;7.60;99.90;;;;;;5070586;28;20184;-61
2023/01/01 06:39:42;;;;;;;26.83;23.93;;;7.60;99.90;;;;;;5070776;28;20205;-60
2023/01/01 06:42:08;;;;;;;24.43;21.83;;;7.70;99.90;;;;;;5070615;28;20197;-62
2023/01/01 06:44:33;;;;;;;24.27;21.47;;;7.70;99.90;;;;;;5070492;28;20171;-61
2023/01/01 06:46:59;;;;;;;24.20;21.63;;;7.80;99.90;;;;;;5071850;28;20171;-61
2023/01/01 06:49:24;;;;;;;21.90;19.60;;;7.80;99.90;;;;;;5071871;28;20232;-60
2023/01/01 06:51:50;;;;;;;18.90;17.00;;;7.70;99.90;;;;;;5071724;28;20203;-57
2023/01/01 06:54:15;;;;;;;17.33;15.50;;;7.80;99.90;;;;;;5071112;28;20181;-60
2023/01/01 06:56:41;;;;;;;16.23;14.50;;;7.70;99.90;;;;;;5071702;28;20167;-58
2023/01/01 06:59:07;;;;;;;17.23;15.53;;;7.70;99.90;;;;;;5071870;28;20175;-63
2023/01/01 07:01:35;;;;;;;16.60;14.90;;;7.70;99.90;;;;;;5071961;28;20222;-60
2023/01/01 07:04:04;;;;;;;16.93;15.23;;;7.70;99.90;;;;;;5071300;28;20591;-61
2023/01/01 07:06:31;;;;;;;18.80;16.80;;;7.70;99.90;;;;;;5071865;28;20175;-62
2023/01/01 07:08:57;;;;;;;20.33;18.17;;;7.70;99.90;;;;;;5070702;28;20563;-59
2023/01/01 07:11:23;;;;;;;18.50;16.50;;;7.70;99.90;;;;;;5071522;28;20261;-60
2023/01/01 07:13:49;;;;;;;18.67;16.63;;;7.70;99.90;;;;;;5070492;28;20701;-61
2023/01/01 07:16:14;;;;;;;18.90;16.90;;;7.70;99.90;;;;;;5071731;28;20169;-62
2023/01/01 07:18:40;;;;;;;21.33;19.03;;;7.70;99.90;;;;;;5071568;28;20170;-58
2023/01/01 07:21:30;;;;;;;18.77;16.87;;;7.70;99.90;;;;;;5071532;28;20638;-62
2023/01/01 07:23:57;;;;;;;21.10;15.70;;;7.80;99.90;;;;;;5071249;28;20171;-60
2023/01/01 07:26:24;;;;;;;17.43;15.70;;;7.80;99.90;;;;;;5071506;28;20172;-60
2023/01/01 07:28:50;;;;;;;19.87;17.23;;;7.90;99.90;;;;;;5071338;28;20201;-61
2023/01/01 07:31:15;;;;;;;16.37;13.97;;;7.90;99.90;;;;;;5071407;28;20246;-58
2023/01/01 07:33:41;;;;;;;18.97;16.80;;;8.00;99.90;;;;;;5071092;28;20171;-59
2023/01/01 07:36:07;;;;;;;17.63;15.57;;;8.00;99.90;;;;;;5071652;28;20198;-61
2023/01/01 07:38:33;;;;;;;16.73;14.73;;;8.10;99.90;;;;;;5071306;28;20571;-62
2023/01/01 07:40:58;;;;;;;15.00;13.50;;;8.20;99.90;;;;;;5071425;28;20171;-61
2023/01/01 07:43:24;;;;;;;15.00;13.40;;;8.30;99.90;;;;;;5053399;28;20194;-63
2023/01/01 07:45:49;;;;;;;13.50;12.20;;;8.30;99.90;;;;;;5053167;28;20183;-59
2023/01/01 07:48:15;;;;;;;14.53;13.03;;;8.40;99.90;;;;;;5071365;28;20213;-62
2023/01/01 07:50:41;;;;;;;14.70;13.20;;;8.40;99.90;;;;;;5071197;28;20182;-60
2023/01/01 07:53:07;;;;;;;14.97;13.47;;;8.40;99.90;;;;;;5071279;28;20279;-62
2023/01/01 07:55:33;;;;;;;16.80;15.10;;;8.40;99.90;;;;;;5070799;28;20198;-62
2023/01/01 07:57:59;;;;;;;14.50;12.97;;;8.50;99.90;;;;;;5074384;28;20171;-60
2023/01/01 08:00:24;;;;;;;13.77;12.27;;;8.60;99.90;;;;;;5074909;28;20171;-58
2023/01/01 08:02:50;;;;;;;15.90;13.57;;;8.90;99.90;;;;;;5074938;28;20201;-60
2023/01/01 08:05:16;;;;;;;14.53;12.97;;;8.70;99.90;;;;;;5074606;28;20177;-61
2023/01/01 08:07:49;;;;;;;13.00;11.63;;;8.90;99.90;;;;;;5074926;28;20225;-63
2023/01/01 08:10:15;;;;;;;10.33;9.33;;;9.10;99.90;;;;;;5074687;28;20166;-62
2023/01/01 08:12:41;;;;;;;9.83;8.83;;;9.60;99.90;;;;;;5074948;28;20232;-61
2023/01/01 08:15:08;;;;;;;9.03;7.37;;;10.30;99.90;;;;;;5074352;28;20174;-62
2023/01/01 08:17:33;;;;;;;7.93;6.93;;;11.00;99.90;;;;;;5074487;28;20175;-63
2023/01/01 08:19:59;;;;;;;7.23;6.53;;;12.00;99.90;;;;;;5074710;28;20231;-63
2023/01/01 08:22:24;;;;;;;7.53;6.60;;;13.50;99.90;;;;;;5074601;28;20218;-60
2023/01/01 08:24:50;;;;;;;7.53;6.57;;;14.90;99.90;;;;;;5074229;28;20651;-58
2023/01/01 08:27:16;;;;;;;8.00;7.20;;;16.60;99.90;;;;;;5074314;28;20245;-60
2023/01/01 08:29:42;;;;;;;6.10;5.53;;;18.00;99.90;;;;;;5074436;28;20171;-61
2023/01/01 08:32:08;;;;;;;6.63;6.03;;;18.90;99.90;;;;;;5074209;28;20281;-61
2023/01/01 08:34:34;;;;;;;6.10;5.53;;;19.50;99.90;;;;;;5074105;28;20245;-60
2023/01/01 08:36:59;;;;;;;4.90;4.50;;;19.70;98.80;;;;;;5074279;28;20186;-61
2023/01/01 08:39:25;;;;;;;4.87;4.47;;;19.70;98.60;;;;;;5074377;28;20190;-64
2023/01/01 08:41:51;;;;;;;5.07;4.67;;;19.40;98.00;;;;;;5074130;28;20263;-61
2023/01/01 08:44:16;;;;;;;5.30;4.90;;;19.00;98.00;;;;;;5073740;28;20183;-63
2023/01/01 08:46:42;;;;;;;5.00;4.50;;;18.60;98.40;;;;;;5074429;28;20175;-61
2023/01/01 08:49:07;;;;;;;5.10;4.70;;;18.30;98.80;;;;;;5073968;28;20191;-62
2023/01/01 08:51:33;;;;;;;5.13;4.67;;;18.10;99.20;;;;;;5074082;28;20193;-61
2023/01/01 08:53:58;;;;;;;4.80;4.40;;;18.10;99.30;;;;;;5073724;28;20183;-61
2023/01/01 08:56:24;;;;;;;5.03;4.60;;;18.00;99.40;;;;;;5074004;28;20644;-62
2023/01/01 08:58:49;;;;;;;4.40;4.10;;;18.10;99.50;;;;;;5073722;28;20178;-60
2023/01/01 09:01:15;;;;;;;5.03;4.50;;;18.10;99.50;;;;;;5073842;28;20182;-61
2023/01/01 09:03:41;;;;;;;6.20;4.00;;;18.30;99.50;;;;;;5073484;28;20228;-59
2023/01/01 09:06:06;;;;;;;4.30;4.00;;;18.70;99.70;;;;;;5073776;28;20207;-59
2023/01/01 09:08:32;;;;;;;3.70;3.40;;;19.60;99.10;;;;;;5055529;28;20199;-61
2023/01/01 09:11:00;;;;;;;3.90;3.60;;;21.00;98.20;;;;;;5073724;28;20674;-62
2023/01/01 09:13:26;;;;;;;3.70;3.40;;;22.60;96.10;;;;;;5073384;28;20209;-62
2023/01/01 09:15:52;;;;;;;4.30;3.53;;;24.40;93.90;;;;;;5073494;28;20171;-62
2023/01/01 09:18:17;;;;;;;3.65;3.35;;;26.00;91.50;;;;;;5073534;28;20545;-63
2023/01/01 09:20:43;;;;;;;3.80;3.50;;;27.40;87.00;;;;;;5073490;28;20308;-62
2023/01/01 09:23:10;;;;;;;4.20;3.35;;;28.70;83.10;;;;;;5073510;28;20228;-62
2023/01/01 09:25:35;;;;;;;3.10;2.90;;;29.80;77.70;;;;;;5072916;28;20228;-62
2023/01/01 09:28:04;;;;;;;3.22;2.90;;;30.80;73.60;;;;;;5073220;28;20190;-63
2023/01/01 09:30:30;;;;;;;3.50;3.20;;;31.80;68.80;;;;;;5073266;28;20220;-63
2023/01/01 09:32:55;;;;;;;4.57;3.50;;;32.50;65.30;;;;;;5073230;28;20281;-63
2023/01/01 09:35:21;;;;;;;4.40;4.00;;;32.90;60.80;;;;;;5072828;28;20635;-63
2023/01/01 09:37:47;;;;;;;4.20;3.90;;;33.20;58.40;;;;;;5073237;28;20175;-63
2023/01/01 09:40:46;;;;;;;3.90;3.60;;;33.40;57.90;;;;;;5072880;28;20662;-63
2023/01/01 09:43:23;;;;;;;3.47;3.20;;;33.70;56.00;;;;;;5073050;28;20194;-62
2023/01/01 09:46:18;;;;;;;7.53;6.75;;;33.80;55.20;;;;;;5072558;28;20174;-62
2023/01/01 09:48:53;;;;;;;3.15;2.88;;;34.30;54.00;;;;;;4971761;28;20780;-63
2023/01/01 09:51:20;;;;;;;3.00;2.75;;;34.40;53.20;;;;;;4971900;28;20271;-62
2023/01/01 09:53:58;;;;;;;3.47;3.00;;;34.70;51.50;;;;;;4971614;28;20177;-62
2023/01/01 09:56:28;;;;;;;2.97;2.78;;;34.70;51.10;;;;;;4971898;28;20207;-62
2023/01/01 09:58:57;;;;;;;2.97;2.78;;;34.90;50.40;;;;;;4971888;28;20181;-63
2023/01/01 10:02:08;;;;;;;3.08;2.88;;;34.90;49.60;;;;;;4971657;28;20205;-63
2023/01/01 10:04:46;;;;;;;3.20;2.90;;;35.00;49.80;;;;;;4967521;28;20216;-62
2023/01/01 10:07:24;;;;;;;3.15;2.95;;;35.00;48.60;;;;;;4971536;28;20185;-62
2023/01/01 10:10:21;;;;;;;3.50;3.30;;;34.50;49.10;;;;;;4971684;28;20177;-62
2023/01/01 10:12:58;;;;;;;3.50;3.20;;;33.80;49.00;;;;;;5053880;22;20698;-54
2023/01/01 10:15:30;;;;;;;3.42;3.22;;;33.00;49.70;;;;;;5112091;28;20161;-54
2023/01/01 10:18:02;;;;;;;3.40;3.20;;;32.60;50.30;;;;;;5112876;28;20181;-55
2023/01/01 10:20:37;;;;;;;3.58;3.35;;;32.40;51.10;;;;;;5112393;28;20169;-52
2023/01/01 10:23:12;;;;;;;3.63;3.33;;;32.50;50.80;;;;;;5113015;28;20226;-55
2023/01/01 10:25:40;;;;;;;3.47;3.20;;;32.50;51.60;;;;;;5112687;28;20545;-50
2023/01/01 10:28:05;;;;;;;4.25;3.85;;;32.90;51.70;;;;;;5112683;28;20189;-55
2023/01/01 10:30:31;;;;;;;4.32;3.90;;;33.40;50.90;;;;;;5112832;28;20226;-50
2023/01/01 10:32:58;;;;;;;4.57;4.18;;;34.10;50.00;;;;;;5112555;28;20242;-52
2023/01/01 10:35:32;;;;;;;3.90;3.38;;;34.70;49.00;;;;;;5112547;28;20165;-51
2023/01/01 10:37:59;;;;;;;3.83;3.53;;;35.30;48.00;;;;;;5112573;28;20163;-52
2023/01/01 10:40:26;;;;;;;4.35;3.83;;;35.80;46.60;;;;;;5112520;28;20164;-51
2023/01/01 10:42:57;;;;;;;3.92;3.63;;;35.80;45.40;;;;;;5112224;28;20188;-52
2023/01/01 10:45:38;;;;;;;4.30;3.95;;;35.80;46.10;;;;;;5112201;28;20633;-56
2023/01/01 10:48:18;;;;;;;4.00;3.70;;;36.00;45.60;;;;;;5112586;28;20668;-54
2023/01/01 10:50:44;;;;;;;4.35;4.03;;;35.90;45.50;;;;;;5112481;28;20656;-52
2023/01/01 10:53:20;;;;;;;5.13;4.57;;;35.40;45.70;;;;;;5112261;28;20192;-52
2023/01/01 10:55:55;;;;;;;5.03;4.63;;;34.90;45.90;;;;;;5112038;28;20171;-54
2023/01/01 10:58:33;;;;;;;4.80;4.40;;;34.80;46.40;;;;;;5112486;28;20194;-51
2023/01/01 11:01:00;;;;;;;4.35;3.95;;;34.90;47.00;;;;;;5112386;28;20195;-50
2023/01/01 11:03:26;;;;;;;5.13;4.28;;;35.30;46.30;;;;;;5112410;28;20195;-52
2023/01/01 11:06:16;;;;;;;4.20;3.85;;;35.80;46.00;;;;;;5111789;28;20168;-51
2023/01/01 11:08:50;;;;;;;4.20;3.90;;;35.90;43.80;;;;;;5112203;28;20201;-50
2023/01/01 11:11:32;;;;;;;4.00;3.70;;;35.00;45.30;;;;;;5112207;28;20707;-53
2023/01/01 11:14:03;;;;;;;4.30;3.95;;;34.90;46.80;;;;;;5110288;28;20267;-55
2023/01/01 11:16:29;;;;;;;4.45;4.07;;;35.40;46.40;;;;;;5111958;28;20664;-53
2023/01/01 11:19:06;;;;;;;4.38;3.97;;;35.80;44.50;;;;;;5112258;28;20251;-52
2023/01/01 11:21:33;;;;;;;4.18;3.78;;;36.40;44.90;;;;;;5112199;28;20233;-55
2023/01/01 11:24:21;;;;;;;4.35;4.05;;;36.90;42.90;;;;;;5111408;28;20678;-53
2023/01/01 11:26:47;;;;;;;4.90;4.43;;;36.20;42.40;;;;;;5111976;28;20282;-50
2023/01/01 11:29:15;;;;;;;4.28;3.85;;;35.80;43.70;;;;;;5112394;28;20197;-56
2023/01/01 11:31:44;;;;;;;4.82;4.43;;;36.00;43.70;;;;;;5114931;28;20167;-53
2023/01/01 11:34:36;;;;;;;4.43;4.10;;;36.40;42.60;;;;;;5115990;28;20627;-52
2023/01/01 11:37:27;;;;;;;3.95;3.65;;;36.70;42.70;;;;;;5116161;28;20192;-54
2023/01/01 11:39:55;;;;;;;4.28;3.88;;;37.00;43.50;;;;;;5115713;28;20172;-54
2023/01/01 11:42:24;;;;;;;4.47;4.07;;;37.20;42.80;;;;;;5115288;28;20224;-51
2023/01/01 11:45:27;;;;;;;4.65;4.25;;;37.40;41.80;;;;;;5115604;28;20190;-55
2023/01/01 11:48:02;;;;;;;4.70;4.25;;;37.60;41.00;;;;;;5072635;28;20217;-52
2023/01/01 11:50:38;;;;;;;4.68;4.28;;;37.60;41.00;;;;;;5072865;28;20177;-56
2023/01/01 11:53:21;;;;;;;4.65;4.25;;;37.50;40.10;;;;;;5072391;28;20670;-56
2023/01/01 11:56:05;;;;;;;4.50;4.10;;;37.20;40.50;;;;;;5072223;28;20174;-54
2023/01/01 11:58:45;;;;;;;4.15;3.85;;;37.00;39.90;;;;;;5072637;28;20256;-52
2023/01/01 12:01:25;;;;;;;4.68;4.28;;;36.50;40.30;;;;;;5072804;28;20701;-54
2023/01/01 12:04:10;;;;;;;4.50;4.10;;;36.10;41.00;;;;;;5072220;28;20209;-54
2023/01/01 12:06:50;;;;;;;5.20;4.80;;;36.10;42.10;;;;;;5072767;28;20170;-55
2023/01/01 12:09:53;;;;;;;4.82;4.40;;;36.10;42.60;;;;;;5071707;28;20205;-52
2023/01/01 12:12:49;;;;;;;4.85;4.45;;;36.10;42.50;;;;;;5072421;28;20278;-53
2023/01/01 12:15:18;;;;;;;4.57;4.28;;;36.20;43.00;;;;;;5072168;28;20166;-55
2023/01/01 12:17:50;;;;;;;4.80;4.40;;;36.20;42.70;;;;;;5072396;28;20190;-56
2023/01/01 12:20:26;;;;;;;4.63;4.25;;;36.00;45.20;;;;;;5072653;28;20170;-52
2023/01/01 12:22:54;;;;;;;4.50;4.20;;;35.50;42.50;;;;;;5082715;28;20255;-54
2023/01/01 12:25:20;;;;;;;4.72;4.32;;;35.10;42.00;;;;;;5114642;28;20579;-56
2023/01/01 12:28:28;;;;;;;4.57;4.18;;;34.70;41.90;;;;;;5112876;28;20196;-55
2023/01/01 12:31:14;;;;;;;5.68;5.20;;;34.10;42.10;;;;;;5105204;28;20263;-56
2023/01/01 12:33:52;;;;;;;5.20;4.80;;;33.70;47.80;;;;;;5113630;28;20185;-55
2023/01/01 12:36:30;;;;;;;5.20;4.80;;;33.40;48.30;;;;;;5115021;28;20173;-56
2023/01/01 12:39:07;;;;;;;5.30;4.90;;;33.00;49.80;;;;;;5114330;28;20187;-55
2023/01/01 12:41:38;;;;;;;6.10;5.60;;;32.80;50.30;;;;;;5114641;28;20172;-54
2023/01/01 12:44:14;;;;;;;5.78;5.30;;;32.40;50.10;;;;;;5112863;28;20173;-54
2023/01/01 12:47:05;;;;;;;5.75;5.25;;;31.90;51.30;;;;;;5114761;28;20545;-54
2023/01/01 12:49:55;;;;;;;6.35;5.82;;;31.50;51.70;;;;;;5114119;28;20270;-56
2023/01/01 12:52:21;;;;;;;6.53;5.93;;;30.80;52.40;;;;;;5114471;28;20185;-55
2023/01/01 12:54:52;;;;;;;7.20;6.50;;;30.20;52.90;;;;;;5113770;28;20169;-56
2023/01/01 12:57:46;;;;;;;6.40;5.90;;;29.50;53.50;;;;;;5113953;28;20632;-56
2023/01/01 13:00:16;;;;;;;6.68;6.07;;;28.80;55.50;;;;;;5113311;28;20170;-54
2023/01/01 13:02:49;;;;;;;6.40;5.90;;;28.20;57.00;;;;;;5114506;28;20192;-55
2023/01/01 13:05:23;;;;;;;6.88;6.28;;;27.80;57.80;;;;;;5114242;28;20185;-54